createdAt,value
2019-05-30T00:00:35.426Z,1.73
2019-05-30T00:03:05.284Z,1.93
2019-05-30T00:05:34.973Z,1.80
2019-05-30T00:08:04.743Z,2.37
2019-05-30T00:10:35.569Z,2.17
2019-05-30T00:13:05.432Z,1.90
2019-05-30T00:15:35.169Z,1.83
2019-05-30T00:18:05.072Z,2.53
2019-05-30T00:20:34.788Z,3.17
2019-05-30T00:23:04.577Z,2.13
2019-05-30T00:25:34.256Z,2.20
2019-05-30T00:28:05.139Z,2.73
2019-05-30T00:30:35.275Z,2.40
2019-05-30T00:33:05.226Z,2.77
2019-05-30T00:35:35.138Z,2.97
2019-05-30T00:38:05.996Z,2.87
2019-05-30T00:40:35.994Z,3.47
2019-05-30T00:43:06.296Z,3.47
2019-05-30T00:45:36.217Z,3.87
2019-05-30T00:48:06.511Z,3.30
2019-05-30T00:50:36.243Z,3.23
2019-05-30T00:53:07.025Z,3.27
2019-05-30T00:55:36.898Z,3.53
2019-05-30T00:58:07.469Z,3.93
2019-05-30T01:00:44.211Z,4.50
2019-05-30T01:03:13.442Z,4.27
2019-05-30T01:05:44.483Z,4.23
2019-05-30T01:08:14.186Z,4.30
2019-05-30T01:10:43.891Z,6.37
2019-05-30T01:13:15.044Z,5.27
2019-05-30T01:15:44.971Z,4.97
2019-05-30T01:18:14.666Z,5.50
2019-05-30T01:20:44.815Z,4.37
2019-05-30T01:23:14.573Z,5.43
2019-05-30T01:25:44.270Z,4.90
2019-05-30T01:28:15.035Z,6.70
2019-05-30T01:30:59.139Z,5.73
2019-05-30T01:33:16.449Z,5.20
2019-05-30T01:35:46.203Z,6.60
2019-05-30T01:38:15.943Z,5.57
2019-05-30T01:40:45.823Z,6.03
2019-05-30T01:43:15.507Z,4.87
2019-05-30T01:45:45.294Z,5.63
2019-05-30T01:48:15.052Z,5.70
2019-05-30T01:50:45.371Z,5.17
2019-05-30T01:53:15.207Z,6.00
2019-05-30T01:55:46.864Z,6.43
2019-05-30T01:58:16.326Z,5.13
2019-05-30T02:00:46.302Z,4.43
2019-05-30T02:03:16.069Z,5.03
2019-05-30T02:05:46.633Z,4.77
2019-05-30T02:08:16.402Z,4.83
2019-05-30T02:10:46.179Z,5.50
2019-05-30T02:13:15.874Z,5.27
2019-05-30T02:15:45.576Z,6.20
2019-05-30T02:18:15.408Z,6.67
2019-05-30T02:20:45.087Z,5.10
2019-05-30T02:23:14.865Z,5.67
2019-05-30T02:25:44.634Z,5.70
2019-05-30T02:28:14.439Z,5.77
2019-05-30T02:30:44.279Z,6.47
2019-05-30T02:33:13.951Z,7.20
2019-05-30T02:35:43.724Z,6.87
2019-05-30T02:38:14.377Z,6.03
2019-05-30T02:40:44.076Z,6.33
2019-05-30T02:43:13.843Z,5.63
2019-05-30T02:45:43.591Z,7.00
2019-05-30T02:48:14.319Z,7.00
2019-05-30T02:50:44.127Z,8.30
2019-05-30T02:53:13.916Z,7.53
2019-05-30T02:55:43.944Z,8.00
2019-05-30T02:58:13.796Z,8.03
2019-05-30T03:00:44.595Z,7.60
2019-05-30T03:03:14.981Z,8.47
2019-05-30T03:05:44.985Z,8.63
2019-05-30T03:08:14.940Z,9.63
2019-05-30T03:10:45.153Z,8.37
2019-05-30T03:13:15.016Z,8.90
2019-05-30T03:15:44.931Z,8.90
2019-05-30T03:18:15.213Z,8.47
2019-05-30T03:20:46.206Z,9.63
2019-05-30T03:23:16.164Z,10.30
2019-05-30T03:25:46.091Z,9.87
2019-05-30T03:28:16.011Z,9.53
2019-05-30T03:30:46.581Z,10.27
2019-05-30T03:33:36.388Z,11.40
2019-05-30T03:35:48.041Z,10.97
2019-05-30T03:38:17.942Z,11.57
2019-05-30T03:40:47.923Z,11.77
2019-05-30T03:43:17.717Z,11.93
2019-05-30T03:45:47.954Z,10.93
2019-05-30T03:48:21.097Z,11.40
2019-05-30T03:50:53.316Z,12.00
2019-05-30T03:53:23.440Z,11.67
2019-05-30T03:55:58.470Z,14.67
2019-05-30T03:58:35.602Z,14.33
2019-05-30T04:01:09.996Z,14.43
2019-05-30T04:03:45.159Z,13.53
2019-05-30T04:06:23.980Z,15.13
2019-05-30T04:08:57.864Z,12.37
2019-05-30T04:11:35.227Z,15.03
2019-05-30T04:14:09.030Z,12.63
2019-05-30T04:16:39.739Z,12.27
2019-05-30T04:19:09.968Z,14.30
2019-05-30T04:21:39.744Z,12.47
2019-05-30T04:24:10.254Z,11.67
2019-05-30T04:26:41.203Z,11.77
2019-05-30T04:29:12.316Z,13.77
2019-05-30T04:31:42.314Z,12.73
2019-05-30T04:34:12.546Z,12.70
2019-05-30T04:36:42.965Z,13.73
2019-05-30T04:39:13.053Z,12.93
2019-05-30T04:41:43.252Z,13.53
2019-05-30T04:44:14.463Z,13.00
2019-05-30T04:46:44.436Z,12.40
2019-05-30T04:49:14.944Z,12.00
2019-05-30T04:51:45.598Z,13.50
2019-05-30T04:54:16.879Z,12.77
2019-05-30T04:56:46.755Z,12.30
2019-05-30T04:59:17.583Z,11.13
2019-05-30T05:01:47.870Z,12.83
2019-05-30T05:04:17.775Z,10.67
2019-05-30T05:06:49.482Z,11.50
2019-05-30T05:09:20.235Z,11.43
2019-05-30T05:11:50.228Z,8.83
2019-05-30T05:14:20.574Z,10.20
2019-05-30T05:16:50.331Z,7.80
2019-05-30T05:19:21.833Z,7.10
2019-05-30T05:21:51.421Z,7.60
2019-05-30T05:24:21.519Z,6.53
2019-05-30T05:26:51.738Z,6.40
2019-05-30T05:29:21.992Z,5.73
2019-05-30T05:31:51.886Z,5.60
2019-05-30T05:34:22.709Z,5.43
2019-05-30T05:36:52.742Z,5.73
2019-05-30T05:39:22.607Z,4.57
2019-05-30T05:41:52.303Z,4.87
2019-05-30T05:44:25.049Z,4.57
2019-05-30T05:46:54.814Z,5.20
2019-05-30T05:49:25.086Z,5.77
2019-05-30T05:51:54.766Z,6.33
2019-05-30T05:54:25.047Z,7.43
2019-05-30T05:56:54.839Z,8.47
2019-05-30T05:59:25.215Z,6.07
2019-05-30T06:01:56.194Z,7.80
2019-05-30T06:04:27.262Z,7.23
2019-05-30T06:06:57.101Z,7.97
2019-05-30T06:09:26.845Z,7.30
2019-05-30T06:11:56.539Z,8.87
2019-05-30T06:14:26.294Z,9.47
2019-05-30T06:16:56.202Z,9.33
2019-05-30T06:19:27.351Z,7.80
2019-05-30T06:21:57.237Z,9.17
2019-05-30T06:24:27.895Z,9.47
2019-05-30T06:26:58.959Z,10.90
2019-05-30T06:29:28.747Z,11.00
2019-05-30T06:31:58.555Z,9.27
2019-05-30T06:34:38.495Z,9.07
2019-05-30T06:36:59.831Z,9.47
2019-05-30T06:39:29.721Z,8.93
2019-05-30T06:41:59.582Z,9.73
2019-05-30T06:44:30.255Z,9.43
2019-05-30T06:47:00.179Z,9.90
2019-05-30T06:49:31.068Z,10.30
2019-05-30T06:52:00.956Z,10.20
2019-05-30T06:54:31.576Z,12.17
2019-05-30T06:57:01.506Z,10.60
2019-05-30T06:59:31.810Z,11.13
2019-05-30T07:02:01.738Z,9.47
2019-05-30T07:04:50.381Z,9.10
2019-05-30T07:07:05.993Z,11.63
2019-05-30T07:09:34.532Z,8.40
2019-05-30T07:12:04.751Z,7.53
2019-05-30T07:14:34.504Z,8.17
2019-05-30T07:17:05.757Z,8.27
2019-05-30T07:19:37.730Z,7.83
2019-05-30T07:22:06.920Z,9.17
2019-05-30T07:24:36.718Z,9.63
2019-05-30T07:27:06.575Z,8.40
2019-05-30T07:29:36.278Z,7.90
2019-05-30T07:32:06.236Z,7.60
2019-05-30T07:34:35.957Z,8.77
2019-05-30T07:37:05.742Z,7.30
2019-05-30T07:39:37.546Z,8.07
2019-05-30T07:42:07.115Z,6.83
2019-05-30T07:44:38.566Z,8.13
2019-05-30T07:47:08.371Z,7.90
2019-05-30T07:49:38.653Z,7.73
2019-05-30T07:52:08.614Z,7.07
2019-05-30T07:54:39.281Z,7.77
2019-05-30T07:57:09.118Z,7.20
2019-05-30T07:59:42.645Z,6.40
2019-05-30T08:02:12.620Z,6.40
2019-05-30T08:04:42.386Z,6.73
2019-05-30T08:07:12.082Z,8.07
2019-05-30T08:09:42.201Z,7.83
2019-05-30T08:12:11.999Z,8.63
2019-05-30T08:14:41.891Z,6.17
2019-05-30T08:17:11.657Z,7.10
2019-05-30T08:19:41.463Z,6.97
2019-05-30T08:22:11.722Z,7.33
2019-05-30T08:24:41.424Z,6.17
2019-05-30T08:27:11.209Z,7.07
2019-05-30T08:29:40.972Z,6.50
2019-05-30T08:32:10.790Z,6.97
2019-05-30T08:34:41.705Z,6.97
2019-05-30T08:37:11.501Z,7.00
2019-05-30T08:39:41.178Z,7.47
2019-05-30T08:42:11.052Z,6.40
2019-05-30T08:44:40.907Z,5.90
2019-05-30T08:47:10.693Z,5.93
2019-05-30T08:49:40.500Z,6.30
2019-05-30T08:52:10.363Z,6.33
2019-05-30T08:54:40.550Z,5.10
2019-05-30T08:57:10.457Z,6.43
2019-05-30T08:59:40.772Z,6.73
2019-05-30T09:02:11.842Z,7.03
2019-05-30T09:04:42.005Z,6.37
2019-05-30T09:07:11.822Z,6.07
2019-05-30T09:09:42.257Z,6.47
2019-05-30T09:12:12.288Z,6.93
2019-05-30T09:14:42.882Z,7.77
2019-05-30T09:17:12.823Z,6.57
2019-05-30T09:19:43.221Z,5.70
2019-05-30T09:22:13.245Z,6.20
2019-05-30T09:24:43.940Z,5.60
2019-05-30T09:27:13.926Z,5.60
2019-05-30T09:29:55.791Z,5.17
2019-05-30T09:32:25.695Z,5.47
2019-05-30T09:34:55.417Z,5.23
2019-05-30T09:37:25.199Z,5.13
2019-05-30T09:39:55.009Z,4.90
2019-05-30T09:42:24.841Z,5.00
2019-05-30T09:44:54.760Z,4.57
2019-05-30T09:47:24.541Z,4.80
2019-05-30T09:49:54.275Z,4.47
2019-05-30T09:52:24.074Z,4.93
2019-05-30T09:54:56.155Z,4.63
2019-05-30T09:57:26.001Z,3.80
2019-05-30T09:59:55.671Z,5.50
2019-05-30T10:02:25.433Z,6.00
2019-05-30T10:04:55.237Z,4.57
2019-05-30T10:07:25.115Z,4.27
2019-05-30T10:09:55.009Z,5.37
2019-05-30T10:12:24.787Z,4.40
2019-05-30T10:14:54.577Z,4.53
2019-05-30T10:17:24.368Z,4.53
2019-05-30T10:19:54.100Z,3.87
2019-05-30T10:22:24.886Z,5.10
2019-05-30T10:24:54.678Z,5.77
2019-05-30T10:27:24.540Z,6.73
2019-05-30T10:29:54.218Z,5.83
2019-05-30T10:32:23.979Z,4.60
2019-05-30T10:34:54.011Z,6.20
2019-05-30T10:37:23.961Z,5.27
2019-05-30T10:39:57.799Z,5.17
2019-05-30T10:42:25.293Z,5.67
2019-05-30T10:44:56.510Z,5.27
2019-05-30T10:47:26.234Z,5.57
2019-05-30T10:49:55.947Z,4.90
2019-05-30T10:52:26.574Z,5.63
2019-05-30T10:54:56.271Z,6.27
2019-05-30T10:57:26.003Z,6.60
2019-05-30T10:59:56.754Z,5.60
2019-05-30T11:02:26.727Z,5.63
2019-05-30T11:04:57.587Z,5.60
2019-05-30T11:07:53.262Z,5.87
2019-05-30T11:10:14.740Z,6.43
2019-05-30T11:12:44.610Z,5.67
2019-05-30T11:15:14.842Z,6.10
2019-05-30T11:17:44.711Z,7.03
2019-05-30T11:20:14.751Z,5.23
2019-05-30T11:22:44.518Z,5.63
2019-05-30T11:25:14.342Z,4.77
2019-05-30T11:27:44.156Z,5.77
2019-05-30T11:30:14.098Z,5.73
2019-05-30T11:32:43.811Z,5.20
2019-05-30T11:35:14.178Z,6.17
2019-05-30T11:37:43.954Z,5.07
2019-05-30T11:40:13.918Z,5.67
2019-05-30T11:42:43.611Z,5.20
2019-05-30T11:45:13.549Z,5.77
2019-05-30T11:47:43.235Z,4.40
2019-05-30T11:50:13.292Z,6.17
2019-05-30T11:52:43.086Z,5.40
2019-05-30T11:55:13.346Z,4.83
2019-05-30T11:57:43.208Z,5.60
2019-05-30T12:00:15.087Z,6.00
2019-05-30T12:02:44.817Z,4.03
2019-05-30T12:05:16.025Z,5.40
2019-05-30T12:07:45.862Z,4.87
2019-05-30T12:10:17.533Z,4.97
2019-05-30T12:12:48.659Z,5.60
2019-05-30T12:15:18.709Z,4.33
2019-05-30T12:17:48.622Z,4.47
2019-05-30T12:20:18.853Z,5.53
2019-05-30T12:22:48.704Z,4.33
2019-05-30T12:25:18.722Z,4.93
2019-05-30T12:27:48.493Z,4.87
2019-05-30T12:30:20.344Z,4.93
2019-05-30T12:32:52.430Z,4.67
2019-05-30T12:35:23.074Z,5.27
2019-05-30T12:37:58.386Z,6.37
2019-05-30T12:40:24.294Z,5.47
2019-05-30T12:42:57.564Z,4.27
2019-05-30T12:45:26.060Z,6.00
2019-05-30T12:47:55.742Z,5.40
2019-05-30T12:50:25.679Z,5.23
2019-05-30T12:52:55.552Z,5.33
2019-05-30T12:55:25.437Z,4.80
2019-05-30T12:57:55.139Z,4.87
2019-05-30T13:00:27.203Z,4.70
2019-05-30T13:02:57.015Z,4.57
2019-05-30T13:05:26.854Z,4.47
2019-05-30T13:08:12.077Z,5.63
2019-05-30T13:10:28.967Z,5.80
2019-05-30T13:12:59.594Z,4.77
2019-05-30T13:15:29.783Z,5.47
2019-05-30T13:17:59.463Z,4.70
2019-05-30T13:20:29.306Z,5.27
2019-05-30T13:22:59.008Z,5.80
2019-05-30T13:25:28.824Z,4.30
2019-05-30T13:28:01.978Z,4.47
2019-05-30T13:30:30.250Z,4.27
2019-05-30T13:33:00.879Z,4.93
2019-05-30T13:35:30.794Z,5.27
2019-05-30T13:38:01.299Z,4.10
2019-05-30T13:40:31.304Z,4.80
2019-05-30T13:43:01.919Z,4.53
2019-05-30T13:45:31.926Z,4.40
2019-05-30T13:48:02.472Z,5.10
2019-05-30T13:50:32.522Z,4.30
2019-05-30T13:53:03.040Z,4.37
2019-05-30T13:55:33.041Z,3.63
2019-05-30T13:58:03.638Z,4.70
2019-05-30T14:00:33.616Z,4.93
2019-05-30T14:03:04.108Z,4.70
2019-05-30T14:05:34.114Z,4.23
2019-05-30T14:08:06.493Z,3.90
2019-05-30T14:10:35.502Z,4.77
2019-05-30T14:13:06.707Z,4.17
2019-05-30T14:15:36.475Z,3.40
2019-05-30T14:18:07.276Z,4.63
2019-05-30T14:20:37.295Z,3.40
2019-05-30T14:23:07.350Z,4.27
2019-05-30T14:25:37.274Z,4.13
2019-05-30T14:28:07.833Z,4.80
2019-05-30T14:30:37.750Z,3.40
2019-05-30T14:33:08.131Z,3.97
2019-05-30T14:35:38.064Z,2.83
2019-05-30T14:38:08.767Z,3.77
2019-05-30T14:40:38.789Z,3.43
2019-05-30T14:43:09.324Z,3.30
2019-05-30T14:45:39.219Z,3.37
2019-05-30T14:48:08.916Z,3.60
2019-05-30T14:50:38.666Z,3.27
2019-05-30T14:53:08.834Z,3.87
2019-05-30T14:55:38.724Z,3.80
2019-05-30T14:58:09.460Z,3.00
2019-05-30T15:00:39.336Z,2.87
2019-05-30T15:03:13.952Z,3.27
2019-05-30T15:05:40.607Z,3.77
2019-05-30T15:08:10.526Z,2.80
2019-05-30T15:10:40.266Z,4.00
2019-05-30T15:13:10.092Z,3.13
2019-05-30T15:15:39.841Z,3.17
2019-05-30T15:18:09.562Z,3.07
2019-05-30T15:20:39.387Z,4.33
2019-05-30T15:23:09.603Z,3.07
2019-05-30T15:25:39.454Z,2.73
2019-05-30T15:28:09.986Z,2.90
2019-05-30T15:30:40.022Z,3.47
2019-05-30T15:33:10.355Z,2.97
2019-05-30T15:35:40.387Z,3.23
2019-05-30T15:38:10.812Z,3.40
2019-05-30T15:40:40.701Z,3.47
2019-05-30T15:43:11.369Z,3.93
2019-05-30T15:45:41.230Z,3.50
2019-05-30T15:48:12.158Z,3.00
2019-05-30T15:50:42.193Z,3.67
2019-05-30T15:53:13.103Z,5.93
2019-05-30T15:55:46.289Z,3.10
2019-05-30T15:58:16.263Z,3.10
2019-05-30T16:00:47.230Z,3.23
2019-05-30T16:03:18.416Z,3.80
2019-05-30T16:05:48.396Z,4.40
2019-05-30T16:08:18.836Z,2.70
2019-05-30T16:10:48.726Z,3.20
2019-05-30T16:13:19.488Z,3.10
2019-05-30T16:15:50.395Z,3.23
2019-05-30T16:18:20.083Z,3.03
2019-05-30T16:20:49.770Z,3.30
2019-05-30T16:23:20.462Z,2.63
2019-05-30T16:25:50.331Z,2.63
2019-05-30T16:28:20.016Z,2.63
2019-05-30T16:30:49.766Z,3.40
2019-05-30T16:33:20.639Z,2.67
2019-05-30T16:35:51.186Z,2.30
2019-05-30T16:38:22.160Z,2.95
2019-05-30T16:40:52.046Z,2.65
2019-05-30T16:43:22.430Z,2.52
2019-05-30T16:45:52.353Z,4.28
2019-05-30T16:48:22.538Z,2.45
2019-05-30T16:50:52.682Z,2.80
2019-05-30T16:53:25.663Z,3.17
2019-05-30T16:55:53.987Z,2.42
2019-05-30T16:58:23.893Z,2.93
2019-05-30T17:00:53.771Z,2.50
2019-05-30T17:03:24.048Z,2.63
2019-05-30T17:05:55.419Z,3.27
2019-05-30T17:08:26.269Z,3.07
2019-05-30T17:10:56.238Z,2.90
2019-05-30T17:13:26.042Z,3.70
2019-05-30T17:15:55.915Z,2.50
2019-05-30T17:18:26.404Z,3.83
2019-05-30T17:20:56.266Z,3.40
2019-05-30T17:23:26.959Z,2.60
2019-05-30T17:25:57.934Z,4.30
2019-05-30T17:28:27.671Z,3.10
2019-05-30T17:30:57.370Z,3.47
2019-05-30T17:33:28.166Z,3.00
2019-05-30T17:35:57.951Z,2.77
2019-05-30T17:38:28.746Z,2.93
2019-05-30T17:40:58.742Z,3.73
2019-05-30T17:43:29.317Z,3.67
2019-05-30T17:45:59.253Z,2.77
2019-05-30T17:48:29.797Z,2.70
2019-05-30T17:50:59.846Z,4.70
2019-05-30T17:53:30.074Z,2.93
2019-05-30T17:56:00.038Z,3.63
2019-05-30T17:58:30.214Z,3.23
2019-05-30T18:01:01.505Z,3.23
2019-05-30T18:03:31.195Z,4.20
2019-05-30T18:06:00.890Z,4.07
2019-05-30T18:08:31.376Z,4.03
2019-05-30T18:11:04.202Z,3.30
2019-05-30T18:13:34.047Z,4.17
2019-05-30T18:16:03.897Z,3.27
2019-05-30T18:18:33.687Z,3.60
2019-05-30T18:21:03.454Z,5.13
2019-05-30T18:23:33.242Z,4.10
2019-05-30T18:26:03.022Z,3.87
2019-05-30T18:28:32.761Z,3.73
2019-05-30T18:31:02.460Z,3.97
2019-05-30T18:33:33.434Z,4.50
2019-05-30T18:36:03.301Z,3.63
2019-05-30T18:38:33.974Z,3.40
2019-05-30T18:41:11.311Z,4.50
2019-05-30T18:43:35.471Z,3.97
2019-05-30T18:46:05.424Z,3.87
2019-05-30T18:48:35.127Z,4.07
2019-05-30T18:51:05.117Z,3.83
2019-05-30T18:53:34.988Z,4.87
2019-05-30T18:56:04.898Z,5.77
2019-05-30T18:58:34.627Z,5.03
2019-05-30T19:01:04.482Z,4.27
2019-05-30T19:03:34.745Z,5.30
2019-05-30T19:06:04.830Z,4.93
2019-05-30T19:08:34.536Z,4.27
2019-05-30T19:11:04.411Z,5.40
2019-05-30T19:13:34.219Z,4.07
2019-05-30T19:16:03.989Z,5.33
2019-05-30T19:18:35.776Z,5.80
2019-05-30T19:21:05.655Z,4.20
2019-05-30T19:23:39.514Z,4.73
2019-05-30T19:26:07.525Z,4.33
2019-05-30T19:28:37.244Z,4.10
2019-05-30T19:31:07.066Z,3.80
2019-05-30T19:33:37.095Z,3.87
2019-05-30T19:36:07.131Z,4.30
2019-05-30T19:38:38.223Z,4.27
2019-05-30T19:41:07.913Z,5.03
2019-05-30T19:43:38.835Z,5.07
2019-05-30T19:46:08.677Z,4.77
2019-05-30T19:48:38.564Z,3.93
2019-05-30T19:51:08.360Z,3.40
2019-05-30T19:53:39.138Z,4.00
2019-05-30T19:56:09.019Z,3.43
2019-05-30T19:58:39.897Z,3.33
2019-05-30T20:01:09.778Z,4.17
2019-05-30T20:03:46.637Z,4.13
2019-05-30T20:06:11.057Z,4.60
2019-05-30T20:08:53.499Z,4.73
2019-05-30T20:11:12.258Z,4.47
2019-05-30T20:13:42.203Z,3.97
2019-05-30T20:16:11.943Z,4.03
2019-05-30T20:18:41.834Z,4.20
2019-05-30T20:21:11.727Z,3.57
2019-05-30T20:23:52.652Z,4.17
2019-05-30T20:26:12.994Z,3.70
2019-05-30T20:28:43.021Z,3.73
2019-05-30T20:31:12.890Z,5.63
2019-05-30T20:33:42.898Z,4.03
2019-05-30T20:36:12.594Z,5.90
2019-05-30T20:38:42.874Z,4.03
2019-05-30T20:41:12.872Z,5.00
2019-05-30T20:43:45.012Z,3.80
2019-05-30T20:46:23.332Z,3.87
2019-05-30T20:48:47.543Z,4.73
2019-05-30T20:51:21.113Z,4.33
2019-05-30T20:53:48.962Z,4.80
2019-05-30T20:56:18.702Z,3.90
2019-05-30T20:58:48.399Z,3.50
2019-05-30T21:01:18.177Z,4.30
2019-05-30T21:03:48.018Z,3.67
2019-05-30T21:06:18.879Z,3.80
2019-05-30T21:08:50.904Z,4.47
2019-05-30T21:11:21.343Z,6.20
2019-05-30T21:13:53.449Z,4.23
2019-05-30T21:16:23.403Z,3.97
2019-05-30T21:18:53.416Z,4.00
2019-05-30T21:21:23.199Z,4.90
2019-05-30T21:23:52.915Z,5.47
2019-05-30T21:26:22.828Z,5.40
2019-05-30T21:28:52.536Z,5.23
2019-05-30T21:31:22.321Z,5.97
2019-05-30T21:33:52.302Z,4.93
2019-05-30T21:36:22.429Z,4.47
2019-05-30T21:38:53.514Z,5.03
2019-05-30T21:41:23.222Z,5.50
2019-05-30T21:43:53.039Z,6.37
2019-05-30T21:46:22.824Z,5.23
2019-05-30T21:48:53.843Z,4.67
2019-05-30T21:51:23.550Z,4.63
2019-05-30T21:53:53.250Z,5.60
2019-05-30T21:56:22.956Z,6.50
2019-05-30T21:58:53.711Z,4.07
2019-05-30T22:01:31.151Z,5.57
2019-05-30T22:04:01.280Z,6.40
2019-05-30T22:06:31.767Z,4.90
2019-05-30T22:09:03.374Z,5.17
2019-05-30T22:11:33.465Z,4.63
2019-05-30T22:14:03.243Z,5.70
2019-05-30T22:16:33.031Z,6.60
2019-05-30T22:19:02.812Z,4.43
2019-05-30T22:21:32.523Z,7.13
2019-05-30T22:24:02.239Z,5.97
2019-05-30T22:26:31.990Z,4.77
2019-05-30T22:29:01.872Z,5.83
2019-05-30T22:31:31.766Z,6.03
2019-05-30T22:34:01.534Z,6.90
2019-05-30T22:36:31.306Z,6.30
2019-05-30T22:39:01.098Z,6.10
2019-05-30T22:41:32.675Z,6.43
2019-05-30T22:44:02.434Z,6.20
2019-05-30T22:46:32.333Z,7.77
2019-05-30T22:49:02.026Z,5.60
2019-05-30T22:51:31.732Z,6.27
2019-05-30T22:54:01.495Z,9.07
2019-05-30T22:56:31.187Z,5.73
2019-05-30T22:59:02.161Z,7.80
2019-05-30T23:01:31.883Z,6.93
2019-05-30T23:04:01.595Z,6.03
2019-05-30T23:06:31.367Z,6.77
2019-05-30T23:09:01.163Z,7.07
2019-05-30T23:11:32.125Z,7.30
2019-05-30T23:14:01.850Z,7.80
2019-05-30T23:16:31.551Z,8.17
2019-05-30T23:19:01.266Z,7.43
2019-05-30T23:21:31.003Z,8.37
2019-05-30T23:24:00.700Z,8.37
2019-05-30T23:26:30.491Z,7.43
2019-05-30T23:29:00.178Z,8.00
2019-05-30T23:31:29.875Z,7.57
2019-05-30T23:33:59.580Z,7.87
2019-05-30T23:36:29.263Z,6.47
2019-05-30T23:38:59.055Z,9.40
2019-05-30T23:41:28.762Z,6.40
2019-05-30T23:44:09.666Z,6.83
2019-05-30T23:46:29.937Z,9.17
2019-05-30T23:48:59.900Z,8.93
2019-05-30T23:51:29.847Z,8.07
2019-05-30T23:54:00.508Z,7.13
2019-05-30T23:56:30.418Z,7.90
2019-05-30T23:59:01.274Z,6.70
